Saint Stephen, MN (56375)

9:40 PM CDT on September 19, 2014 (GMT -0500)
Central Minnesota | Change Station
CLOSE
Current Station
Personal Weather Station
Location: Rice, MN
Elevation: 1051 ft
Nearby Weather Stations

Elev 1051 ft 45.76 °N, 94.19 °W | Updated 4 seconds ago

Fog
Fog
58.4 °F
Feels Like 58.4 °F
N
0.0
Wind Variable Wind from SSE

Today
High -- | Low -- °F
--% Chance of Precip.
Yesterday
High -- | Low -- °F
Precip. -- in
7:00 AM 7:20 PM
Waning Crescent, 15% visible
Pressure 29.67 in
Visibility 0.2 miles
Clouds
Dew Point 57 °F
Humidity 94%
Rainfall 0.00 in
Snow Depth Not available.
UV Not available.
Pollen 4.20 out of 12
Air Quality Not available.
Flu Activity Not available.
SPECI KSTC 200229Z 00000KT 1/4SM FG VV004 17/16 A2967 RMK AO2 T01670156

More Conditions Fewer Conditions

Pressure 29.67 in
Visibility 0.2 miles
Clouds
Dew Point 57 °F
Humidity 94%
Rainfall 0.00 in
Snow Depth Not available.
UV Not available.
Pollen 4.20 out of 12
Air Quality Not available.
Flu Activity Not available.
SPECI KSTC 200229Z 00000KT 1/4SM FG VV004 17/16 A2967 RMK AO2 T01670156

More Conditions Fewer Conditions

10-Day Weather Forecast

Almanac

Astronomy

Sep. 19, 2014 Rise Set
Actual Time 7:00 AM CDT 7:20 PM CDT
Civil Twilight 6:30 AM CDT 7:50 PM CDT
Nautical Twilight 5:55 AM CDT 8:25 PM CDT
Astronomical Twilight 5:19 AM CDT 9:01 PM CDT
Moon 2:35 AM CDT (9/19) 4:58 PM CDT (9/19)
Length of Visible Light 13h 19m
Length of Day
12h 20m
Tomorrow will be 3m 11s shorter.
Waning Crescent, 15% of the Moon is Illuminated
Today
Waning Crescent
Sep 24
New
Oct 1
First Quarter
Oct 8
Full
Oct 15
Last Quarter

Today's Extremes

State Highs State Lows

Community

WunderPhotos

Upload Photos

1,754,768 photos uploaded!

WunderBlogs® & News

Nearby

Snow Depth

Station Depth Elevation
No new snow has been reported.

Earthquake Activity

City Distance Mag. Time & Date
No recent earthquake activity has been reported nearby.
Minimum magnitude displayed is 2.5.

Coastal Water Temperatures

Place Temperature
No Stations Reporting

Nearby Weather Stations